< < Back
Terminal Aerodrome Forecast


Current Version              Previous Versions:   1  2  3  4  5  6  7  8  9  

Terminal Aerodrome Forecast

684
FTUS44 KMOB 271726
TAFPNS
TAF
KPNS 271726Z 2718/2818 08004KT P6SM VCTS SCT025CB OVC100
     FM271900 27015G25KT 5SM TSRA OVC012CB
     FM272000 20012KT 6SM TSRA SCT025CB BKN040
      TEMPO 2720/2723 3SM TSRA BR BKN025CB
     FM280000 06011KT 5SM TSRA BKN020CB=



Latest METAR

505
SAUS70 KWBC 280000 RRB
MTRPNS
METAR KPNS 272353Z 02007KT 10SM SCT008 19/17 A2977 RMK AO2 SLP082 60049
T01890172 10200 20167 53015


USA.gov is the U.S. government's official web portal to all federal, state and local government web resources and services.